Terminal Aerodrome Forecast
Issued by NWS Jacksonville, FL

Home | Current Version | Previous Version | Text Only | Print | Product List | Glossary On
Versions: 1 2 3 4 5 6 7 8 9 10 11 12 13 14 15 16 17 18 19
000
FTUS42 KJAX 121151 AAA
TAFGNV
TAF AMD
KGNV 121151Z 1212/1312 VRB03KT P6SM SCT003
      TEMPO 1212/1213 BKN003
     FM121500 25017G26KT P6SM FEW050
     FM130000 30008KT P6SM SKC=

USA.gov is the U.S. government's official web portal to all federal, state and local government web resources and services.